sensor_id;sensor_type;location;lat;lon;timestamp;pressure;altitude;pressure_sealevel;temperature;humidity
11114;BME280;5610;52.154;9.198;2023-06-24T00:00:17;101549.34;;;17.32;100.00
11114;BME280;5610;52.154;9.198;2023-06-24T00:03:04;101543.09;;;17.31;100.00
11114;BME280;5610;52.154;9.198;2023-06-24T00:05:51;101541.97;;;17.34;100.00
11114;BME280;5610;52.154;9.198;2023-06-24T00:08:37;101538.56;;;17.32;100.00
11114;BME280;5610;52.154;9.198;2023-06-24T00:11:22;101550.84;;;17.36;100.00
11114;BME280;5610;52.154;9.198;2023-06-24T00:14:08;101546.31;;;17.36;100.00
11114;BME280;5610;52.154;9.198;2023-06-24T00:16:56;101539.28;;;17.34;100.00
11114;BME280;5610;52.154;9.198;2023-06-24T00:19:41;101542.09;;;17.32;100.00
11114;BME280;5610;52.154;9.198;2023-06-24T00:22:27;101541.13;;;17.33;100.00
11114;BME280;5610;52.154;9.198;2023-06-24T00:25:13;101542.22;;;17.30;100.00
11114;BME280;5610;52.154;9.198;2023-06-24T00:27:59;101540.50;;;17.29;100.00
11114;BME280;5610;52.154;9.198;2023-06-24T00:30:44;101541.72;;;17.25;100.00
11114;BME280;5610;52.154;9.198;2023-06-24T00:33:32;101546.22;;;17.14;100.00
11114;BME280;5610;52.154;9.198;2023-06-24T00:36:20;101544.69;;;17.10;100.00
11114;BME280;5610;52.154;9.198;2023-06-24T00:39:06;101543.31;;;17.04;100.00
11114;BME280;5610;52.154;9.198;2023-06-24T00:41:53;101544.25;;;16.92;100.00
11114;BME280;5610;52.154;9.198;2023-06-24T00:44:39;101547.38;;;16.86;100.00
11114;BME280;5610;52.154;9.198;2023-06-24T00:47:25;101552.56;;;16.76;100.00
11114;BME280;5610;52.154;9.198;2023-06-24T00:50:14;101553.91;;;16.70;100.00
11114;BME280;5610;52.154;9.198;2023-06-24T00:52:59;101560.00;;;16.60;100.00
11114;BME280;5610;52.154;9.198;2023-06-24T00:55:45;101554.44;;;16.50;100.00
11114;BME280;5610;52.154;9.198;2023-06-24T00:58:32;101554.13;;;16.42;100.00
11114;BME280;5610;52.154;9.198;2023-06-24T01:01:20;101555.31;;;16.38;100.00
11114;BME280;5610;52.154;9.198;2023-06-24T01:04:07;101551.47;;;16.29;100.00
11114;BME280;5610;52.154;9.198;2023-06-24T01:06:55;101554.78;;;16.20;100.00
11114;BME280;5610;52.154;9.198;2023-06-24T01:09:41;101552.31;;;16.17;100.00
11114;BME280;5610;52.154;9.198;2023-06-24T01:12:26;101547.06;;;16.15;100.00
11114;BME280;5610;52.154;9.198;2023-06-24T01:15:11;101559.09;;;16.10;100.00
11114;BME280;5610;52.154;9.198;2023-06-24T01:18:00;101557.69;;;16.04;100.00
11114;BME280;5610;52.154;9.198;2023-06-24T01:20:49;101555.66;;;15.95;100.00
11114;BME280;5610;52.154;9.198;2023-06-24T01:24:03;101555.53;;;15.97;100.00
11114;BME280;5610;52.154;9.198;2023-06-24T01:33:43;101557.03;;;15.75;100.00
11114;BME280;5610;52.154;9.198;2023-06-24T01:36:33;101553.78;;;15.70;100.00
11114;BME280;5610;52.154;9.198;2023-06-24T01:39:22;101571.63;;;15.71;100.00
11114;BME280;5610;52.154;9.198;2023-06-24T01:42:11;101567.16;;;15.72;100.00
11114;BME280;5610;52.154;9.198;2023-06-24T01:44:58;101566.47;;;15.68;100.00
11114;BME280;5610;52.154;9.198;2023-06-24T01:47:47;101563.56;;;15.71;100.00
11114;BME280;5610;52.154;9.198;2023-06-24T01:50:34;101562.06;;;15.67;100.00
11114;BME280;5610;52.154;9.198;2023-06-24T01:53:20;101573.78;;;15.66;100.00
11114;BME280;5610;52.154;9.198;2023-06-24T01:56:09;101582.03;;;15.63;100.00
11114;BME280;5610;52.154;9.198;2023-06-24T01:58:57;101576.78;;;15.61;100.00
11114;BME280;5610;52.154;9.198;2023-06-24T02:01:44;101581.88;;;15.52;100.00
11114;BME280;5610;52.154;9.198;2023-06-24T02:04:31;101570.19;;;15.53;100.00
11114;BME280;5610;52.154;9.198;2023-06-24T02:07:18;101574.44;;;15.43;100.00
11114;BME280;5610;52.154;9.198;2023-06-24T02:10:07;101579.91;;;15.41;100.00
11114;BME280;5610;52.154;9.198;2023-06-24T02:12:55;101579.56;;;15.33;100.00
11114;BME280;5610;52.154;9.198;2023-06-24T02:15:44;101584.81;;;15.34;100.00
11114;BME280;5610;52.154;9.198;2023-06-24T02:18:30;101584.19;;;15.31;100.00
11114;BME280;5610;52.154;9.198;2023-06-24T02:21:17;101584.69;;;15.23;100.00
11114;BME280;5610;52.154;9.198;2023-06-24T02:24:05;101587.66;;;15.19;100.00
11114;BME280;5610;52.154;9.198;2023-06-24T02:26:51;101585.28;;;15.14;100.00
11114;BME280;5610;52.154;9.198;2023-06-24T02:29:39;101590.19;;;15.07;100.00
11114;BME280;5610;52.154;9.198;2023-06-24T02:32:25;101590.50;;;15.03;100.00
11114;BME280;5610;52.154;9.198;2023-06-24T02:35:10;101600.09;;;14.93;100.00
11114;BME280;5610;52.154;9.198;2023-06-24T02:37:55;101589.06;;;14.97;100.00
11114;BME280;5610;52.154;9.198;2023-06-24T02:40:45;101593.59;;;14.97;100.00
11114;BME280;5610;52.154;9.198;2023-06-24T02:43:30;101589.56;;;14.90;100.00
11114;BME280;5610;52.154;9.198;2023-06-24T02:46:16;101584.09;;;14.91;100.00
11114;BME280;5610;52.154;9.198;2023-06-24T02:49:02;101586.53;;;14.81;100.00
11114;BME280;5610;52.154;9.198;2023-06-24T02:51:49;101589.31;;;14.80;100.00
11114;BME280;5610;52.154;9.198;2023-06-24T02:54:34;101585.66;;;14.81;100.00
11114;BME280;5610;52.154;9.198;2023-06-24T02:57:43;101580.94;;;14.84;100.00
11114;BME280;5610;52.154;9.198;2023-06-24T03:00:48;101587.00;;;14.88;100.00
11114;BME280;5610;52.154;9.198;2023-06-24T03:03:48;101594.38;;;14.84;100.00
11114;BME280;5610;52.154;9.198;2023-06-24T03:06:35;101603.97;;;14.89;100.00
11114;BME280;5610;52.154;9.198;2023-06-24T03:09:23;101597.91;;;14.85;100.00
11114;BME280;5610;52.154;9.198;2023-06-24T03:12:08;101600.50;;;14.87;100.00
11114;BME280;5610;52.154;9.198;2023-06-24T03:15:00;101611.66;;;14.80;100.00
11114;BME280;5610;52.154;9.198;2023-06-24T03:17:46;101613.47;;;14.80;100.00
11114;BME280;5610;52.154;9.198;2023-06-24T03:20:32;101617.00;;;14.80;100.00
11114;BME280;5610;52.154;9.198;2023-06-24T03:23:23;101618.72;;;14.81;100.00
11114;BME280;5610;52.154;9.198;2023-06-24T03:26:08;101616.69;;;14.85;100.00
11114;BME280;5610;52.154;9.198;2023-06-24T03:28:53;101620.25;;;14.86;100.00
11114;BME280;5610;52.154;9.198;2023-06-24T03:31:40;101613.53;;;14.78;100.00
11114;BME280;5610;52.154;9.198;2023-06-24T03:34:28;101604.63;;;14.78;100.00
11114;BME280;5610;52.154;9.198;2023-06-24T03:37:13;101611.44;;;14.83;100.00
11114;BME280;5610;52.154;9.198;2023-06-24T03:40:00;101610.28;;;14.88;100.00
11114;BME280;5610;52.154;9.198;2023-06-24T03:42:45;101616.59;;;14.87;100.00
11114;BME280;5610;52.154;9.198;2023-06-24T03:45:30;101631.28;;;14.95;100.00
11114;BME280;5610;52.154;9.198;2023-06-24T03:48:17;101629.72;;;14.91;100.00
11114;BME280;5610;52.154;9.198;2023-06-24T03:51:03;101629.84;;;14.90;100.00
11114;BME280;5610;52.154;9.198;2023-06-24T03:53:49;101639.00;;;15.00;100.00
11114;BME280;5610;52.154;9.198;2023-06-24T03:56:35;101633.34;;;15.04;100.00
11114;BME280;5610;52.154;9.198;2023-06-24T03:59:20;101627.78;;;15.07;100.00
11114;BME280;5610;52.154;9.198;2023-06-24T04:02:06;101627.31;;;15.01;100.00
11114;BME280;5610;52.154;9.198;2023-06-24T04:04:53;101623.56;;;15.03;100.00
11114;BME280;5610;52.154;9.198;2023-06-24T04:07:41;101621.75;;;15.04;100.00
11114;BME280;5610;52.154;9.198;2023-06-24T04:10:30;101632.97;;;15.10;100.00
11114;BME280;5610;52.154;9.198;2023-06-24T04:13:16;101627.84;;;15.20;100.00
11114;BME280;5610;52.154;9.198;2023-06-24T04:16:02;101625.84;;;15.24;100.00
11114;BME280;5610;52.154;9.198;2023-06-24T04:18:48;101621.22;;;15.26;100.00
11114;BME280;5610;52.154;9.198;2023-06-24T04:21:34;101617.66;;;15.25;100.00
11114;BME280;5610;52.154;9.198;2023-06-24T04:24:19;101615.56;;;15.30;100.00
11114;BME280;5610;52.154;9.198;2023-06-24T04:27:06;101615.56;;;15.30;100.00
11114;BME280;5610;52.154;9.198;2023-06-24T04:29:51;101620.09;;;15.43;100.00
11114;BME280;5610;52.154;9.198;2023-06-24T04:32:37;101617.63;;;15.39;100.00
11114;BME280;5610;52.154;9.198;2023-06-24T04:35:22;101614.19;;;15.50;100.00
11114;BME280;5610;52.154;9.198;2023-06-24T04:38:09;101616.88;;;15.50;100.00
11114;BME280;5610;52.154;9.198;2023-06-24T04:40:54;101629.72;;;15.59;100.00
11114;BME280;5610;52.154;9.198;2023-06-24T04:43:41;101621.38;;;15.64;100.00
11114;BME280;5610;52.154;9.198;2023-06-24T04:46:26;101630.00;;;15.69;100.00
11114;BME280;5610;52.154;9.198;2023-06-24T04:49:11;101620.78;;;15.73;100.00
11114;BME280;5610;52.154;9.198;2023-06-24T04:51:56;101620.44;;;15.78;100.00
11114;BME280;5610;52.154;9.198;2023-06-24T04:54:46;101620.03;;;15.84;100.00
11114;BME280;5610;52.154;9.198;2023-06-24T04:57:32;101624.13;;;15.89;100.00
11114;BME280;5610;52.154;9.198;2023-06-24T05:00:18;101625.44;;;15.97;100.00
11114;BME280;5610;52.154;9.198;2023-06-24T05:03:06;101626.09;;;16.00;100.00
11114;BME280;5610;52.154;9.198;2023-06-24T05:05:52;101635.56;;;16.06;100.00
11114;BME280;5610;52.154;9.198;2023-06-24T05:08:37;101637.94;;;16.10;100.00
11114;BME280;5610;52.154;9.198;2023-06-24T05:11:23;101644.06;;;16.12;100.00
11114;BME280;5610;52.154;9.198;2023-06-24T05:14:09;101641.63;;;16.22;100.00
11114;BME280;5610;52.154;9.198;2023-06-24T05:16:54;101630.44;;;16.28;100.00
11114;BME280;5610;52.154;9.198;2023-06-24T05:19:39;101630.53;;;16.39;100.00
11114;BME280;5610;52.154;9.198;2023-06-24T05:22:24;101634.31;;;16.50;100.00
11114;BME280;5610;52.154;9.198;2023-06-24T05:25:10;101631.06;;;16.57;100.00
11114;BME280;5610;52.154;9.198;2023-06-24T05:27:56;101627.94;;;16.63;100.00
11114;BME280;5610;52.154;9.198;2023-06-24T05:30:41;101631.94;;;16.70;100.00
11114;BME280;5610;52.154;9.198;2023-06-24T05:33:27;101631.59;;;16.75;100.00
11114;BME280;5610;52.154;9.198;2023-06-24T05:36:12;101636.88;;;16.77;100.00
11114;BME280;5610;52.154;9.198;2023-06-24T05:38:57;101641.69;;;16.84;100.00
11114;BME280;5610;52.154;9.198;2023-06-24T05:41:42;101647.06;;;16.84;100.00
11114;BME280;5610;52.154;9.198;2023-06-24T05:44:29;101644.50;;;16.83;100.00
11114;BME280;5610;52.154;9.198;2023-06-24T05:47:14;101634.16;;;16.89;100.00
11114;BME280;5610;52.154;9.198;2023-06-24T05:49:59;101640.06;;;17.07;100.00
11114;BME280;5610;52.154;9.198;2023-06-24T05:52:45;101637.22;;;17.21;100.00
11114;BME280;5610;52.154;9.198;2023-06-24T05:55:29;101645.00;;;17.37;100.00
11114;BME280;5610;52.154;9.198;2023-06-24T05:58:14;101644.22;;;17.48;100.00
11114;BME280;5610;52.154;9.198;2023-06-24T06:01:01;101642.03;;;17.53;100.00
11114;BME280;5610;52.154;9.198;2023-06-24T06:03:46;101643.81;;;17.65;100.00
11114;BME280;5610;52.154;9.198;2023-06-24T06:06:31;101648.53;;;17.74;100.00
11114;BME280;5610;52.154;9.198;2023-06-24T06:09:17;101639.75;;;17.83;100.00
11114;BME280;5610;52.154;9.198;2023-06-24T06:12:02;101628.88;;;17.96;100.00
11114;BME280;5610;52.154;9.198;2023-06-24T06:14:48;101636.13;;;18.07;100.00
11114;BME280;5610;52.154;9.198;2023-06-24T06:17:34;101637.91;;;18.19;100.00
11114;BME280;5610;52.154;9.198;2023-06-24T06:20:20;101641.59;;;18.29;100.00
11114;BME280;5610;52.154;9.198;2023-06-24T06:23:05;101643.47;;;18.40;100.00
11114;BME280;5610;52.154;9.198;2023-06-24T06:25:50;101646.53;;;18.47;100.00
11114;BME280;5610;52.154;9.198;2023-06-24T06:28:35;101643.47;;;18.62;100.00
11114;BME280;5610;52.154;9.198;2023-06-24T06:31:20;101645.22;;;18.75;100.00
11114;BME280;5610;52.154;9.198;2023-06-24T06:34:08;101637.84;;;18.88;100.00
11114;BME280;5610;52.154;9.198;2023-06-24T06:36:53;101644.81;;;19.02;100.00
11114;BME280;5610;52.154;9.198;2023-06-24T06:39:38;101653.16;;;19.10;100.00
11114;BME280;5610;52.154;9.198;2023-06-24T06:42:23;101642.47;;;19.19;100.00
11114;BME280;5610;52.154;9.198;2023-06-24T06:45:09;101640.34;;;19.34;100.00
11114;BME280;5610;52.154;9.198;2023-06-24T06:47:54;101638.59;;;19.44;100.00
11114;BME280;5610;52.154;9.198;2023-06-24T06:50:41;101632.28;;;19.55;100.00
11114;BME280;5610;52.154;9.198;2023-06-24T06:53:26;101639.22;;;19.59;100.00
11114;BME280;5610;52.154;9.198;2023-06-24T06:56:16;101640.13;;;19.69;100.00
11114;BME280;5610;52.154;9.198;2023-06-24T06:59:02;101628.41;;;19.80;100.00
11114;BME280;5610;52.154;9.198;2023-06-24T07:01:47;101624.66;;;19.92;100.00
11114;BME280;5610;52.154;9.198;2023-06-24T07:04:32;101638.13;;;20.03;100.00
11114;BME280;5610;52.154;9.198;2023-06-24T07:07:19;101634.78;;;20.11;100.00
11114;BME280;5610;52.154;9.198;2023-06-24T07:10:05;101624.84;;;20.21;100.00
11114;BME280;5610;52.154;9.198;2023-06-24T07:12:50;101634.28;;;20.27;100.00
11114;BME280;5610;52.154;9.198;2023-06-24T07:15:42;101633.09;;;20.41;100.00
11114;BME280;5610;52.154;9.198;2023-06-24T07:18:27;101636.34;;;20.55;100.00
11114;BME280;5610;52.154;9.198;2023-06-24T07:21:14;101638.81;;;20.68;100.00
11114;BME280;5610;52.154;9.198;2023-06-24T07:24:00;101629.47;;;20.82;100.00
11114;BME280;5610;52.154;9.198;2023-06-24T07:26:46;101633.66;;;20.96;100.00
11114;BME280;5610;52.154;9.198;2023-06-24T07:29:32;101632.97;;;21.13;100.00
11114;BME280;5610;52.154;9.198;2023-06-24T07:32:17;101643.88;;;21.23;100.00
11114;BME280;5610;52.154;9.198;2023-06-24T07:35:03;101643.91;;;21.32;100.00
11114;BME280;5610;52.154;9.198;2023-06-24T07:37:48;101651.38;;;21.50;100.00
11114;BME280;5610;52.154;9.198;2023-06-24T07:40:35;101649.50;;;21.60;100.00
11114;BME280;5610;52.154;9.198;2023-06-24T07:43:20;101655.66;;;21.81;100.00
11114;BME280;5610;52.154;9.198;2023-06-24T07:46:06;101653.81;;;22.01;100.00
11114;BME280;5610;52.154;9.198;2023-06-24T07:48:51;101650.69;;;22.15;100.00
11114;BME280;5610;52.154;9.198;2023-06-24T07:51:36;101657.09;;;22.24;100.00
11114;BME280;5610;52.154;9.198;2023-06-24T07:54:21;101656.63;;;22.38;100.00
11114;BME280;5610;52.154;9.198;2023-06-24T07:57:08;101651.56;;;22.53;100.00
11114;BME280;5610;52.154;9.198;2023-06-24T07:59:53;101652.25;;;22.65;100.00
11114;BME280;5610;52.154;9.198;2023-06-24T08:02:40;101649.50;;;22.74;100.00
11114;BME280;5610;52.154;9.198;2023-06-24T08:05:25;101646.75;;;22.84;100.00
11114;BME280;5610;52.154;9.198;2023-06-24T08:08:10;101647.44;;;22.96;100.00
11114;BME280;5610;52.154;9.198;2023-06-24T08:10:55;101649.56;;;23.02;100.00
11114;BME280;5610;52.154;9.198;2023-06-24T08:13:42;101646.50;;;23.15;100.00
11114;BME280;5610;52.154;9.198;2023-06-24T08:16:28;101643.09;;;23.30;100.00
11114;BME280;5610;52.154;9.198;2023-06-24T08:19:13;101646.63;;;23.41;100.00
11114;BME280;5610;52.154;9.198;2023-06-24T08:21:59;101636.44;;;23.43;100.00
11114;BME280;5610;52.154;9.198;2023-06-24T08:24:44;101625.63;;;23.51;100.00
11114;BME280;5610;52.154;9.198;2023-06-24T08:27:30;101624.97;;;23.84;100.00
11114;BME280;5610;52.154;9.198;2023-06-24T08:30:16;101623.59;;;24.06;100.00
11114;BME280;5610;52.154;9.198;2023-06-24T08:33:01;101632.44;;;24.26;100.00
11114;BME280;5610;52.154;9.198;2023-06-24T08:35:47;101632.69;;;24.33;100.00
11114;BME280;5610;52.154;9.198;2023-06-24T08:38:32;101626.50;;;24.57;100.00
11114;BME280;5610;52.154;9.198;2023-06-24T08:41:17;101624.41;;;24.77;100.00
11114;BME280;5610;52.154;9.198;2023-06-24T08:44:03;101616.88;;;24.71;100.00
11114;BME280;5610;52.154;9.198;2023-06-24T08:46:50;101622.59;;;24.93;100.00
11114;BME280;5610;52.154;9.198;2023-06-24T08:49:41;101618.78;;;25.12;100.00
11114;BME280;5610;52.154;9.198;2023-06-24T08:52:31;101611.66;;;25.36;100.00
11114;BME280;5610;52.154;9.198;2023-06-24T08:55:19;101625.03;;;25.63;100.00
11114;BME280;5610;52.154;9.198;2023-06-24T08:58:07;101619.63;;;25.88;97.70
11114;BME280;5610;52.154;9.198;2023-06-24T09:00:52;101617.53;;;26.06;95.32
11114;BME280;5610;52.154;9.198;2023-06-24T09:03:39;101612.06;;;26.31;95.49
11114;BME280;5610;52.154;9.198;2023-06-24T09:06:24;101610.53;;;26.44;90.12
11114;BME280;5610;52.154;9.198;2023-06-24T09:09:17;101611.84;;;26.65;87.95
11114;BME280;5610;52.154;9.198;2023-06-24T09:12:04;101604.41;;;26.81;85.59
11114;BME280;5610;52.154;9.198;2023-06-24T09:14:54;101608.75;;;26.99;84.89
11114;BME280;5610;52.154;9.198;2023-06-24T09:17:43;101612.31;;;27.16;83.70
11114;BME280;5610;52.154;9.198;2023-06-24T09:20:32;101609.78;;;27.37;83.86
11114;BME280;5610;52.154;9.198;2023-06-24T09:23:25;101592.03;;;27.56;80.55
11114;BME280;5610;52.154;9.198;2023-06-24T09:26:10;101592.97;;;27.71;73.32
11114;BME280;5610;52.154;9.198;2023-06-24T09:28:57;101596.34;;;27.96;71.05
11114;BME280;5610;52.154;9.198;2023-06-24T09:31:48;101587.69;;;28.22;69.16
11114;BME280;5610;52.154;9.198;2023-06-24T09:34:36;101576.59;;;28.38;67.63
11114;BME280;5610;52.154;9.198;2023-06-24T09:37:24;101577.81;;;28.65;65.26
11114;BME280;5610;52.154;9.198;2023-06-24T09:40:14;101569.97;;;28.92;64.53
11114;BME280;5610;52.154;9.198;2023-06-24T09:42:59;101580.56;;;29.16;63.96
11114;BME280;5610;52.154;9.198;2023-06-24T09:45:48;101574.25;;;29.37;62.81
11114;BME280;5610;52.154;9.198;2023-06-24T09:48:34;101572.22;;;29.61;62.03
11114;BME280;5610;52.154;9.198;2023-06-24T09:51:20;101571.34;;;29.81;57.09
11114;BME280;5610;52.154;9.198;2023-06-24T09:54:08;101579.78;;;30.08;60.64
11114;BME280;5610;52.154;9.198;2023-06-24T09:56:54;101573.66;;;30.34;59.38
11114;BME280;5610;52.154;9.198;2023-06-24T09:59:43;101576.34;;;30.62;58.24
11114;BME280;5610;52.154;9.198;2023-06-24T10:02:31;101566.94;;;30.84;55.70
11114;BME280;5610;52.154;9.198;2023-06-24T10:05:17;101560.47;;;31.12;53.11
11114;BME280;5610;52.154;9.198;2023-06-24T10:08:04;101557.19;;;31.43;55.17
11114;BME280;5610;52.154;9.198;2023-06-24T10:10:51;101558.03;;;31.63;52.86
11114;BME280;5610;52.154;9.198;2023-06-24T10:13:36;101560.84;;;31.90;53.21
11114;BME280;5610;52.154;9.198;2023-06-24T10:16:24;101559.75;;;32.11;51.99
11114;BME280;5610;52.154;9.198;2023-06-24T10:19:21;101551.03;;;32.27;52.99
11114;BME280;5610;52.154;9.198;2023-06-24T10:22:07;101547.38;;;32.53;51.05
11114;BME280;5610;52.154;9.198;2023-06-24T10:24:54;101534.31;;;32.87;50.53
11114;BME280;5610;52.154;9.198;2023-06-24T10:27:42;101537.50;;;33.22;50.67
11114;BME280;5610;52.154;9.198;2023-06-24T10:30:27;101528.31;;;32.96;49.95
11114;BME280;5610;52.154;9.198;2023-06-24T10:33:13;101541.34;;;32.69;50.17
11114;BME280;5610;52.154;9.198;2023-06-24T10:36:00;101530.38;;;32.56;49.68
11114;BME280;5610;52.154;9.198;2023-06-24T10:38:55;101526.03;;;32.87;52.36
11114;BME280;5610;52.154;9.198;2023-06-24T10:41:40;101531.16;;;32.70;50.05
11114;BME280;5610;52.154;9.198;2023-06-24T10:44:26;101517.50;;;33.26;49.45
11114;BME280;5610;52.154;9.198;2023-06-24T10:47:12;101515.63;;;33.52;49.14
11114;BME280;5610;52.154;9.198;2023-06-24T10:49:57;101520.16;;;33.71;47.94
11114;BME280;5610;52.154;9.198;2023-06-24T10:52:44;101513.22;;;33.30;48.16
11114;BME280;5610;52.154;9.198;2023-06-24T10:55:30;101511.63;;;32.78;49.92
11114;BME280;5610;52.154;9.198;2023-06-24T10:58:15;101514.25;;;32.60;50.06
11114;BME280;5610;52.154;9.198;2023-06-24T11:01:09;101502.69;;;32.76;50.27
11114;BME280;5610;52.154;9.198;2023-06-24T11:03:54;101501.81;;;32.31;49.56
11114;BME280;5610;52.154;9.198;2023-06-24T11:06:38;101503.28;;;32.40;49.57
11114;BME280;5610;52.154;9.198;2023-06-24T11:09:23;101507.19;;;31.92;49.55
11114;BME280;5610;52.154;9.198;2023-06-24T11:12:09;101498.53;;;34.11;47.85
11114;BME280;5610;52.154;9.198;2023-06-24T11:14:56;101491.84;;;37.25;41.48
11114;BME280;5610;52.154;9.198;2023-06-24T11:17:43;101487.81;;;40.31;38.50
11114;BME280;5610;52.154;9.198;2023-06-24T11:20:28;101479.41;;;41.14;36.08
11114;BME280;5610;52.154;9.198;2023-06-24T11:23:14;101481.91;;;42.72;33.32
11114;BME280;5610;52.154;9.198;2023-06-24T11:26:02;101478.78;;;44.72;32.08
11114;BME280;5610;52.154;9.198;2023-06-24T11:28:48;101473.63;;;45.50;30.35
11114;BME280;5610;52.154;9.198;2023-06-24T11:31:34;101478.06;;;45.04;30.49
11114;BME280;5610;52.154;9.198;2023-06-24T11:34:20;101472.66;;;46.28;29.46
11114;BME280;5610;52.154;9.198;2023-06-24T11:37:10;101466.09;;;46.33;28.55
11114;BME280;5610;52.154;9.198;2023-06-24T11:40:01;101455.94;;;43.01;30.93
11114;BME280;5610;52.154;9.198;2023-06-24T11:42:48;101455.41;;;40.30;34.14
11114;BME280;5610;52.154;9.198;2023-06-24T11:45:34;101454.22;;;38.72;37.04
11114;BME280;5610;52.154;9.198;2023-06-24T11:48:20;101447.25;;;40.92;34.34
11114;BME280;5610;52.154;9.198;2023-06-24T11:51:13;101445.09;;;43.81;31.81
11114;BME280;5610;52.154;9.198;2023-06-24T11:53:59;101447.16;;;46.61;27.47
11114;BME280;5610;52.154;9.198;2023-06-24T11:56:51;101433.63;;;46.21;28.42
11114;BME280;5610;52.154;9.198;2023-06-24T11:59:36;101442.00;;;42.86;30.43
11114;BME280;5610;52.154;9.198;2023-06-24T12:02:22;101440.34;;;40.31;33.72
11114;BME280;5610;52.154;9.198;2023-06-24T12:05:07;101441.75;;;40.29;33.47
11114;BME280;5610;52.154;9.198;2023-06-24T12:07:56;101433.47;;;42.02;33.02
11114;BME280;5610;52.154;9.198;2023-06-24T12:10:43;101422.31;;;44.50;30.59
11114;BME280;5610;52.154;9.198;2023-06-24T12:13:28;101424.38;;;46.43;28.43
11114;BME280;5610;52.154;9.198;2023-06-24T12:16:13;101417.66;;;48.13;26.65
11114;BME280;5610;52.154;9.198;2023-06-24T12:18:59;101409.75;;;48.93;26.75
11114;BME280;5610;52.154;9.198;2023-06-24T12:21:44;101415.16;;;46.65;27.86
11114;BME280;5610;52.154;9.198;2023-06-24T12:24:31;101421.78;;;46.61;28.80
11114;BME280;5610;52.154;9.198;2023-06-24T12:27:16;101407.34;;;45.98;28.11
11114;BME280;5610;52.154;9.198;2023-06-24T12:30:01;101413.41;;;42.39;30.90
11114;BME280;5610;52.154;9.198;2023-06-24T12:32:49;101418.59;;;39.81;34.46
11114;BME280;5610;52.154;9.198;2023-06-24T12:35:35;101414.34;;;40.21;34.08
11114;BME280;5610;52.154;9.198;2023-06-24T12:38:20;101414.91;;;43.10;31.39
11114;BME280;5610;52.154;9.198;2023-06-24T12:41:07;101409.84;;;46.00;27.97
11114;BME280;5610;52.154;9.198;2023-06-24T12:43:52;101409.19;;;47.34;26.87
11114;BME280;5610;52.154;9.198;2023-06-24T12:46:37;101411.31;;;47.28;27.78
11114;BME280;5610;52.154;9.198;2023-06-24T12:49:22;101404.06;;;47.36;27.06
11114;BME280;5610;52.154;9.198;2023-06-24T12:52:08;101409.63;;;46.96;27.26
11114;BME280;5610;52.154;9.198;2023-06-24T12:54:53;101407.50;;;45.33;28.07
11114;BME280;5610;52.154;9.198;2023-06-24T12:57:39;101407.28;;;42.76;30.56
11114;BME280;5610;52.154;9.198;2023-06-24T13:00:24;101402.00;;;40.89;33.93
11114;BME280;5610;52.154;9.198;2023-06-24T13:03:10;101401.88;;;39.07;34.95
11114;BME280;5610;52.154;9.198;2023-06-24T13:05:55;101407.44;;;37.31;37.44
11114;BME280;5610;52.154;9.198;2023-06-24T13:08:41;101411.41;;;36.16;38.14
11114;BME280;5610;52.154;9.198;2023-06-24T13:11:27;101413.50;;;37.28;38.06
11114;BME280;5610;52.154;9.198;2023-06-24T13:14:14;101401.09;;;40.84;34.17
11114;BME280;5610;52.154;9.198;2023-06-24T13:16:59;101401.34;;;44.23;29.71
11114;BME280;5610;52.154;9.198;2023-06-24T13:19:44;101400.16;;;46.78;27.75
11114;BME280;5610;52.154;9.198;2023-06-24T13:22:30;101398.28;;;48.38;25.60
11114;BME280;5610;52.154;9.198;2023-06-24T13:25:15;101393.25;;;48.95;23.67
11114;BME280;5610;52.154;9.198;2023-06-24T13:28:01;101391.31;;;48.44;22.88
11114;BME280;5610;52.154;9.198;2023-06-24T13:30:48;101388.59;;;47.65;24.60
11114;BME280;5610;52.154;9.198;2023-06-24T13:33:33;101378.44;;;48.03;25.32
11114;BME280;5610;52.154;9.198;2023-06-24T13:36:31;101380.59;;;49.10;24.56
11114;BME280;5610;52.154;9.198;2023-06-24T13:39:17;101380.19;;;50.06;23.97
11114;BME280;5610;52.154;9.198;2023-06-24T13:42:02;101380.44;;;49.92;23.97
11114;BME280;5610;52.154;9.198;2023-06-24T13:44:47;101374.47;;;50.14;23.43
11114;BME280;5610;52.154;9.198;2023-06-24T13:47:34;101377.44;;;50.18;23.65
11114;BME280;5610;52.154;9.198;2023-06-24T13:50:19;101371.84;;;50.51;24.02
11114;BME280;5610;52.154;9.198;2023-06-24T13:53:04;101373.09;;;50.41;24.09
11114;BME280;5610;52.154;9.198;2023-06-24T13:55:50;101375.72;;;50.46;23.88
11114;BME280;5610;52.154;9.198;2023-06-24T13:58:35;101369.56;;;50.23;23.30
11114;BME280;5610;52.154;9.198;2023-06-24T14:01:20;101368.38;;;46.28;24.82
11114;BME280;5610;52.154;9.198;2023-06-24T14:04:07;101363.03;;;42.73;29.12
11114;BME280;5610;52.154;9.198;2023-06-24T14:06:53;101353.19;;;40.14;32.33
11114;BME280;5610;52.154;9.198;2023-06-24T14:09:38;101359.06;;;39.18;34.41
11114;BME280;5610;52.154;9.198;2023-06-24T14:12:24;101355.84;;;39.04;35.27
11114;BME280;5610;52.154;9.198;2023-06-24T14:15:09;101362.13;;;38.84;35.62
11114;BME280;5610;52.154;9.198;2023-06-24T14:17:54;101360.19;;;38.90;34.95
11114;BME280;5610;52.154;9.198;2023-06-24T14:20:41;101352.94;;;38.84;35.76
11114;BME280;5610;52.154;9.198;2023-06-24T14:23:27;101358.09;;;38.70;36.19
11114;BME280;5610;52.154;9.198;2023-06-24T14:26:12;101360.94;;;38.04;35.59
11114;BME280;5610;52.154;9.198;2023-06-24T14:28:58;101354.34;;;36.94;37.48
11114;BME280;5610;52.154;9.198;2023-06-24T14:31:45;101353.91;;;35.88;39.55
11114;BME280;5610;52.154;9.198;2023-06-24T14:34:30;101351.34;;;34.81;40.28
11114;BME280;5610;52.154;9.198;2023-06-24T14:37:17;101348.97;;;34.25;42.16
11114;BME280;5610;52.154;9.198;2023-06-24T14:40:03;101356.41;;;33.94;42.38
11114;BME280;5610;52.154;9.198;2023-06-24T14:42:49;101355.31;;;33.77;42.45